createdAt,value
2023-03-27T00:00:09.065Z,15.85
2023-03-27T00:00:42.749Z,14.65
2023-03-27T00:01:16.284Z,17.15
2023-03-27T00:01:48.738Z,13.68
2023-03-27T00:02:23.472Z,15.07
2023-03-27T00:02:57.944Z,13.60
2023-03-27T00:03:30.630Z,13.95
2023-03-27T00:04:03.031Z,13.65
2023-03-27T00:04:35.664Z,13.68
2023-03-27T00:05:08.579Z,12.32
2023-03-27T00:05:40.950Z,12.75
2023-03-27T00:06:17.245Z,14.38
2023-03-27T00:06:49.909Z,13.60
2023-03-27T00:07:23.138Z,16.20
2023-03-27T00:07:56.108Z,15.97
2023-03-27T00:08:28.846Z,15.73
2023-03-27T00:09:03.071Z,16.00
2023-03-27T00:09:37.367Z,17.73
2023-03-27T00:10:10.208Z,14.43
2023-03-27T00:10:42.844Z,15.10
2023-03-27T00:11:16.125Z,15.65
2023-03-27T00:11:48.548Z,16.58
2023-03-27T00:12:20.921Z,14.90
2023-03-27T00:12:53.367Z,13.35
2023-03-27T00:13:25.855Z,16.33
2023-03-27T00:13:58.108Z,24.77
2023-03-27T00:14:30.614Z,28.05
2023-03-27T00:15:02.895Z,28.58
2023-03-27T00:15:36.414Z,30.58
2023-03-27T00:16:09.971Z,26.58
2023-03-27T00:16:43.004Z,25.35
2023-03-27T00:17:15.415Z,22.20
2023-03-27T00:17:48.885Z,25.15
2023-03-27T00:18:21.930Z,23.63
2023-03-27T00:18:54.539Z,22.43
2023-03-27T00:19:26.792Z,24.60
2023-03-27T00:19:59.515Z,22.35
2023-03-27T00:20:37.392Z,24.58
2023-03-27T00:21:10.091Z,25.50
2023-03-27T00:21:42.389Z,27.90
2023-03-27T00:22:15.091Z,25.95
2023-03-27T00:22:48.343Z,28.45
2023-03-27T00:23:21.610Z,30.17
2023-03-27T00:23:54.721Z,27.38
2023-03-27T00:24:27.329Z,27.27
2023-03-27T00:24:59.871Z,24.42
2023-03-27T00:25:32.648Z,22.90
2023-03-27T00:26:05.677Z,25.77
2023-03-27T00:26:40.949Z,22.38
2023-03-27T00:27:13.824Z,22.73
2023-03-27T00:27:46.273Z,19.58
2023-03-27T00:28:18.892Z,19.95
2023-03-27T00:28:51.496Z,20.17
2023-03-27T00:29:24.022Z,17.75
2023-03-27T00:29:56.336Z,19.80
2023-03-27T00:30:30.192Z,19.58
2023-03-27T00:31:02.915Z,18.27
2023-03-27T00:31:35.764Z,19.13
2023-03-27T00:32:08.211Z,21.17
2023-03-27T00:32:41.012Z,17.65
2023-03-27T00:33:13.393Z,19.92
2023-03-27T00:33:46.190Z,17.90
2023-03-27T00:34:18.955Z,19.70
2023-03-27T00:34:52.195Z,17.95
2023-03-27T00:35:25.589Z,17.43
2023-03-27T00:35:58.049Z,18.40
2023-03-27T00:36:30.460Z,17.70
2023-03-27T00:37:04.955Z,18.67
2023-03-27T00:37:37.435Z,18.55
2023-03-27T00:38:09.977Z,17.98
2023-03-27T00:38:43.933Z,18.85
2023-03-27T00:39:16.655Z,18.83
2023-03-27T00:39:50.709Z,17.00
2023-03-27T00:40:23.008Z,16.92
2023-03-27T00:40:56.086Z,16.17
2023-03-27T00:41:28.610Z,16.20
2023-03-27T00:42:01.197Z,17.77
2023-03-27T00:42:33.942Z,16.50
2023-03-27T00:43:20.631Z,16.45
2023-03-27T00:43:54.319Z,15.73
2023-03-27T00:44:31.342Z,16.38
2023-03-27T00:45:04.333Z,16.67
2023-03-27T00:45:38.226Z,17.20
2023-03-27T00:46:22.080Z,15.63
2023-03-27T00:46:57.355Z,16.67
2023-03-27T00:47:31.830Z,16.08
2023-03-27T00:48:06.883Z,15.20
2023-03-27T00:48:39.860Z,15.02
2023-03-27T00:49:13.309Z,15.60
2023-03-27T00:49:46.026Z,15.32
2023-03-27T00:50:20.429Z,15.70
2023-03-27T00:50:53.295Z,14.63
2023-03-27T00:51:26.843Z,15.15
2023-03-27T00:52:00.115Z,15.30
2023-03-27T00:52:33.098Z,15.03
2023-03-27T00:53:10.529Z,14.00
2023-03-27T00:53:43.121Z,14.10
2023-03-27T00:54:17.901Z,14.38
2023-03-27T00:54:50.572Z,14.10
2023-03-27T00:55:23.293Z,14.15
2023-03-27T00:55:58.397Z,14.13
2023-03-27T00:56:30.916Z,14.52
2023-03-27T00:57:07.394Z,13.98
2023-03-27T00:57:40.476Z,14.40
2023-03-27T00:58:21.149Z,13.67
2023-03-27T00:58:55.751Z,14.45
2023-03-27T00:59:31.260Z,12.85
2023-03-27T01:00:11.090Z,14.55
2023-03-27T01:00:43.492Z,14.85
2023-03-27T01:01:16.934Z,15.63
2023-03-27T01:01:49.609Z,13.40
2023-03-27T01:02:22.821Z,14.18
2023-03-27T01:02:55.664Z,13.93
2023-03-27T01:03:33.949Z,14.50
2023-03-27T01:04:08.102Z,14.27
2023-03-27T01:04:42.093Z,13.82
2023-03-27T01:05:15.473Z,14.35
2023-03-27T01:05:48.972Z,14.35
2023-03-27T01:06:22.201Z,12.48
2023-03-27T01:06:55.979Z,14.18
2023-03-27T01:07:29.325Z,14.32
2023-03-27T01:08:02.021Z,14.10
2023-03-27T01:08:38.035Z,13.13
2023-03-27T01:09:11.499Z,13.20
2023-03-27T01:09:53.234Z,14.23
2023-03-27T01:10:30.678Z,13.23
2023-03-27T01:11:06.575Z,13.18
2023-03-27T01:11:46.632Z,14.35
2023-03-27T01:12:22.906Z,14.38
2023-03-27T01:13:07.502Z,14.63
2023-03-27T01:13:51.735Z,14.57
2023-03-27T01:14:23.983Z,13.60
2023-03-27T01:15:16.602Z,12.23
2023-03-27T01:15:53.459Z,13.30
2023-03-27T01:16:40.231Z,14.07
2023-03-27T01:17:18.699Z,12.98
2023-03-27T01:17:51.607Z,13.60
2023-03-27T01:18:24.012Z,14.68
2023-03-27T01:18:56.365Z,15.73
2023-03-27T01:19:31.996Z,15.15
2023-03-27T01:20:07.754Z,13.85
2023-03-27T01:20:59.947Z,14.43
2023-03-27T01:21:44.607Z,13.88
2023-03-27T01:22:42.945Z,13.43
2023-03-27T01:23:59.822Z,12.83
2023-03-27T01:24:43.451Z,13.55
2023-03-27T01:25:16.035Z,13.45
2023-03-27T01:25:48.526Z,14.88
2023-03-27T01:26:39.140Z,14.35
2023-03-27T01:27:41.103Z,13.35
2023-03-27T01:28:19.847Z,12.38
2023-03-27T01:28:56.564Z,13.50
2023-03-27T01:29:49.335Z,14.80
2023-03-27T01:30:29.487Z,13.50
2023-03-27T01:31:11.236Z,12.73
2023-03-27T01:32:01.842Z,13.02
2023-03-27T01:32:34.192Z,14.38
2023-03-27T01:33:21.754Z,15.82
2023-03-27T01:33:56.887Z,14.30
2023-03-27T01:34:38.590Z,13.55
2023-03-27T01:35:11.181Z,14.98
2023-03-27T01:36:02.357Z,14.23
2023-03-27T01:36:56.002Z,13.20
2023-03-27T01:37:48.022Z,14.18
2023-03-27T01:38:40.096Z,11.97
2023-03-27T01:39:21.224Z,12.48
2023-03-27T01:40:13.011Z,13.07
2023-03-27T01:40:51.538Z,13.05
2023-03-27T01:41:41.320Z,13.77
2023-03-27T01:42:26.080Z,13.15
2023-03-27T01:43:03.814Z,15.10
2023-03-27T01:43:36.279Z,14.82
2023-03-27T01:44:11.593Z,13.20
2023-03-27T01:44:47.511Z,15.10
2023-03-27T01:45:23.596Z,16.03
2023-03-27T01:45:58.210Z,15.60
2023-03-27T01:46:35.454Z,13.40
2023-03-27T01:47:20.188Z,14.15
2023-03-27T01:48:13.276Z,15.57
2023-03-27T01:48:52.551Z,14.43
2023-03-27T01:49:27.998Z,14.40
2023-03-27T01:50:08.321Z,16.45
2023-03-27T01:50:46.577Z,13.35
2023-03-27T01:51:31.200Z,13.73
2023-03-27T01:52:06.351Z,15.40
2023-03-27T01:52:41.540Z,13.13
2023-03-27T01:53:22.818Z,13.98
2023-03-27T01:54:01.070Z,12.98
2023-03-27T01:54:36.518Z,13.95
2023-03-27T01:55:14.198Z,14.57
2023-03-27T01:55:50.226Z,15.20
2023-03-27T01:56:27.149Z,13.05
2023-03-27T01:57:04.866Z,13.80
2023-03-27T01:57:49.212Z,14.10
2023-03-27T01:58:28.285Z,12.80
2023-03-27T01:59:07.149Z,14.05
2023-03-27T01:59:41.768Z,16.02
2023-03-27T02:00:19.659Z,12.85
2023-03-27T02:00:53.822Z,13.50
2023-03-27T02:01:34.356Z,15.27
2023-03-27T02:02:15.138Z,15.27
2023-03-27T02:03:00.174Z,14.95
2023-03-27T02:03:37.839Z,16.23
2023-03-27T02:04:14.879Z,13.05
2023-03-27T02:04:50.592Z,15.57
2023-03-27T02:05:35.301Z,15.18
2023-03-27T02:06:13.599Z,14.65
2023-03-27T02:06:50.284Z,17.08
2023-03-27T02:07:26.463Z,15.07
2023-03-27T02:08:10.648Z,14.25
2023-03-27T02:08:48.949Z,15.45
2023-03-27T02:09:30.173Z,13.68
2023-03-27T02:10:05.171Z,16.23
2023-03-27T02:10:41.162Z,15.40
2023-03-27T02:11:17.596Z,14.43
2023-03-27T02:12:08.588Z,17.77
2023-03-27T02:12:46.740Z,17.95
2023-03-27T02:13:48.246Z,14.73
2023-03-27T02:14:30.951Z,14.93
2023-03-27T02:15:23.706Z,14.15
2023-03-27T02:16:01.160Z,16.95
2023-03-27T02:16:36.145Z,14.05
2023-03-27T02:17:13.129Z,16.98
2023-03-27T02:17:48.102Z,16.30
2023-03-27T02:18:29.263Z,16.40
2023-03-27T02:19:03.348Z,15.55
2023-03-27T02:19:56.432Z,15.10
2023-03-27T02:20:29.158Z,16.73
2023-03-27T02:21:03.662Z,17.88
2023-03-27T02:21:37.949Z,17.20
2023-03-27T02:22:10.320Z,18.75
2023-03-27T02:22:51.658Z,16.70
2023-03-27T02:23:23.954Z,16.48
2023-03-27T02:23:56.895Z,16.45
2023-03-27T02:24:29.794Z,16.53
2023-03-27T02:25:02.113Z,16.33
2023-03-27T02:25:35.805Z,18.10
2023-03-27T02:26:10.470Z,17.52
2023-03-27T02:26:42.982Z,15.43
2023-03-27T02:27:30.309Z,17.20
2023-03-27T02:28:12.689Z,16.17
2023-03-27T02:28:46.153Z,16.15
2023-03-27T02:29:33.920Z,15.95
2023-03-27T02:30:31.453Z,16.02
2023-03-27T02:31:31.872Z,15.87
2023-03-27T02:32:06.188Z,17.55
2023-03-27T02:32:54.007Z,16.92
2023-03-27T02:33:52.936Z,17.00
2023-03-27T02:34:27.648Z,16.20
2023-03-27T02:35:08.422Z,15.57
2023-03-27T02:35:47.613Z,16.33
2023-03-27T02:36:29.981Z,15.00
2023-03-27T02:37:05.268Z,16.67
2023-03-27T02:38:02.574Z,15.05
2023-03-27T02:38:44.160Z,17.13
2023-03-27T02:39:19.283Z,16.42
2023-03-27T02:39:54.834Z,16.88
2023-03-27T02:40:30.392Z,17.73
2023-03-27T02:41:30.910Z,17.13
2023-03-27T02:42:50.501Z,17.20
2023-03-27T02:43:26.569Z,15.48
2023-03-27T02:44:02.449Z,16.35
2023-03-27T02:44:57.330Z,16.80
2023-03-27T02:45:32.572Z,17.70
2023-03-27T02:46:17.050Z,15.67
2023-03-27T02:47:08.144Z,15.85
2023-03-27T02:47:47.674Z,16.70
2023-03-27T02:48:25.058Z,16.05
2023-03-27T02:48:59.078Z,14.25
2023-03-27T02:49:36.347Z,15.15
2023-03-27T02:50:13.681Z,15.35
2023-03-27T02:51:15.551Z,14.23
2023-03-27T02:51:53.469Z,14.55
2023-03-27T02:52:32.187Z,13.35
2023-03-27T02:53:05.829Z,16.13
2023-03-27T02:53:55.066Z,15.48
2023-03-27T02:54:36.235Z,16.92
2023-03-27T02:55:12.938Z,13.80
2023-03-27T02:55:50.139Z,14.35
2023-03-27T02:56:24.366Z,15.75
2023-03-27T02:56:59.324Z,13.25
2023-03-27T02:57:51.515Z,15.35
2023-03-27T02:58:48.086Z,14.10
2023-03-27T02:59:37.436Z,14.73
2023-03-27T03:00:18.632Z,15.57
2023-03-27T03:00:53.788Z,14.95
2023-03-27T03:01:46.075Z,14.75
2023-03-27T03:02:26.078Z,15.93
2023-03-27T03:03:09.352Z,16.70
2023-03-27T03:03:44.778Z,16.33
2023-03-27T03:04:41.918Z,16.95
2023-03-27T03:05:20.978Z,15.18
2023-03-27T03:05:57.474Z,16.40
2023-03-27T03:06:32.587Z,16.27
2023-03-27T03:07:06.649Z,15.50
2023-03-27T03:07:40.349Z,16.60
2023-03-27T03:08:12.865Z,16.38
2023-03-27T03:08:47.013Z,17.55
2023-03-27T03:09:19.400Z,16.48
2023-03-27T03:09:52.307Z,19.35
2023-03-27T03:10:25.292Z,16.83
2023-03-27T03:11:02.029Z,17.55
2023-03-27T03:11:35.699Z,16.92
2023-03-27T03:12:08.825Z,18.00
2023-03-27T03:12:45.632Z,18.30
2023-03-27T03:13:18.197Z,17.25
2023-03-27T03:13:51.431Z,17.52
2023-03-27T03:14:30.552Z,19.77
2023-03-27T03:15:03.337Z,18.48
2023-03-27T03:15:36.656Z,18.80
2023-03-27T03:16:10.498Z,18.52
2023-03-27T03:16:43.054Z,17.38
2023-03-27T03:17:16.096Z,19.33
2023-03-27T03:17:48.852Z,18.67
2023-03-27T03:18:21.289Z,21.17
2023-03-27T03:18:53.670Z,16.70
2023-03-27T03:19:26.123Z,20.20
2023-03-27T03:19:58.497Z,17.25
2023-03-27T03:20:31.981Z,19.52
2023-03-27T03:21:05.955Z,18.25
2023-03-27T03:21:39.926Z,19.30
2023-03-27T03:22:16.233Z,19.10
2023-03-27T03:22:49.533Z,18.90
2023-03-27T03:23:23.930Z,18.50
2023-03-27T03:23:58.241Z,19.93
2023-03-27T03:24:32.592Z,20.42
2023-03-27T03:25:05.601Z,21.60
2023-03-27T03:25:37.993Z,19.48
2023-03-27T03:26:10.307Z,21.80
2023-03-27T03:26:53.150Z,21.30
2023-03-27T03:27:25.670Z,19.27
2023-03-27T03:28:08.585Z,20.77
2023-03-27T03:29:00.838Z,18.92
2023-03-27T03:29:37.937Z,18.52
2023-03-27T03:30:19.822Z,20.53
2023-03-27T03:31:03.044Z,20.60
2023-03-27T03:31:45.422Z,19.58
2023-03-27T03:32:18.229Z,18.00
2023-03-27T03:32:51.162Z,21.65
2023-03-27T03:33:23.655Z,17.90
2023-03-27T03:33:56.681Z,18.67
2023-03-27T03:34:30.531Z,18.33
2023-03-27T03:35:03.122Z,19.88
2023-03-27T03:35:39.218Z,20.60
2023-03-27T03:36:18.917Z,23.30
2023-03-27T03:36:55.300Z,20.77
2023-03-27T03:37:38.997Z,18.13
2023-03-27T03:38:16.160Z,19.90
2023-03-27T03:38:51.759Z,23.73
2023-03-27T03:39:24.473Z,18.60
2023-03-27T03:39:57.245Z,19.67
2023-03-27T03:40:29.987Z,18.60
2023-03-27T03:41:03.528Z,20.90
2023-03-27T03:41:36.358Z,20.23
2023-03-27T03:42:08.743Z,17.80
2023-03-27T03:42:45.121Z,18.90
2023-03-27T03:43:17.552Z,19.52
2023-03-27T03:43:51.580Z,17.63
2023-03-27T03:44:24.046Z,18.40
2023-03-27T03:44:56.694Z,18.05
2023-03-27T03:45:29.097Z,19.02
2023-03-27T03:46:02.007Z,18.33
2023-03-27T03:46:34.558Z,17.38
2023-03-27T03:47:06.901Z,19.45
2023-03-27T03:47:39.219Z,16.20
2023-03-27T03:48:11.731Z,16.92
2023-03-27T03:48:44.139Z,17.70
2023-03-27T03:49:16.538Z,18.33
2023-03-27T03:49:49.306Z,19.35
2023-03-27T03:50:21.824Z,18.08
2023-03-27T03:50:54.530Z,18.48
2023-03-27T03:51:28.476Z,18.75
2023-03-27T03:52:03.733Z,19.48
2023-03-27T03:52:37.414Z,16.85
2023-03-27T03:53:09.856Z,17.23
2023-03-27T03:53:42.276Z,17.27
2023-03-27T03:54:14.665Z,15.68
2023-03-27T03:54:48.982Z,16.92
2023-03-27T03:55:21.524Z,17.48
2023-03-27T03:55:53.903Z,17.42
2023-03-27T03:56:27.976Z,15.70
2023-03-27T03:57:01.179Z,16.60
2023-03-27T03:57:33.976Z,17.45
2023-03-27T03:58:11.758Z,15.90
2023-03-27T03:58:45.205Z,18.00
2023-03-27T03:59:17.673Z,15.40
2023-03-27T04:00:12.638Z,15.52
2023-03-27T04:00:56.874Z,15.75
2023-03-27T04:01:49.578Z,16.52
2023-03-27T04:02:31.330Z,17.65
2023-03-27T04:03:11.744Z,16.50
2023-03-27T04:03:44.389Z,15.30
2023-03-27T04:04:16.882Z,16.98
2023-03-27T04:05:10.492Z,15.88
2023-03-27T04:05:45.705Z,16.23
2023-03-27T04:06:21.238Z,14.73
2023-03-27T04:06:58.517Z,16.30
2023-03-27T04:07:36.122Z,15.10
2023-03-27T04:08:44.784Z,16.42
2023-03-27T04:09:35.400Z,14.93
2023-03-27T04:10:19.718Z,15.88
2023-03-27T04:10:52.774Z,16.05
2023-03-27T04:11:40.413Z,16.92
2023-03-27T04:12:20.036Z,15.38
2023-03-27T04:13:06.041Z,16.77
2023-03-27T04:13:42.574Z,16.45
2023-03-27T04:14:38.365Z,15.50
2023-03-27T04:15:21.963Z,19.25
2023-03-27T04:16:13.009Z,15.20
2023-03-27T04:16:49.417Z,18.23
2023-03-27T04:17:26.875Z,18.20
2023-03-27T04:18:00.501Z,17.40
2023-03-27T04:18:35.301Z,20.05
2023-03-27T04:19:12.106Z,17.85
2023-03-27T04:19:47.112Z,18.70
2023-03-27T04:20:19.928Z,18.65
2023-03-27T04:20:54.594Z,17.08
2023-03-27T04:21:30.372Z,17.38
2023-03-27T04:22:03.834Z,19.05
2023-03-27T04:22:46.833Z,18.48
2023-03-27T04:23:20.964Z,19.67
2023-03-27T04:23:54.113Z,19.33
2023-03-27T04:24:35.125Z,18.38
2023-03-27T04:25:08.599Z,19.52
2023-03-27T04:25:40.940Z,22.83
2023-03-27T04:26:16.343Z,20.45
2023-03-27T04:27:23.656Z,21.10
2023-03-27T04:28:04.514Z,21.00
2023-03-27T04:28:47.660Z,19.17
2023-03-27T04:29:43.717Z,18.48
2023-03-27T04:30:50.615Z,17.67
2023-03-27T04:31:46.826Z,17.95
2023-03-27T04:32:38.202Z,16.98
2023-03-27T04:33:39.923Z,17.13
2023-03-27T04:34:41.734Z,14.93
2023-03-27T04:35:35.484Z,17.80
2023-03-27T04:36:21.649Z,17.33
2023-03-27T04:37:02.503Z,15.70
2023-03-27T04:37:35.426Z,15.00
2023-03-27T04:38:21.742Z,15.77
2023-03-27T04:38:57.400Z,17.05
2023-03-27T04:39:30.065Z,15.30
2023-03-27T04:40:05.641Z,14.68
2023-03-27T04:40:39.241Z,15.98
2023-03-27T04:41:11.574Z,15.40
2023-03-27T04:41:48.962Z,15.32
2023-03-27T04:42:23.725Z,16.08
2023-03-27T04:42:56.719Z,16.65
2023-03-27T04:43:29.055Z,17.50
2023-03-27T04:44:01.468Z,17.10
2023-03-27T04:44:35.337Z,17.83
2023-03-27T04:45:08.330Z,15.98
2023-03-27T04:45:40.889Z,17.15
2023-03-27T04:46:13.668Z,18.27
2023-03-27T04:46:51.823Z,16.87
2023-03-27T04:47:24.344Z,15.88
2023-03-27T04:48:03.456Z,15.05
2023-03-27T04:48:39.329Z,15.60
2023-03-27T04:49:31.694Z,16.48
2023-03-27T04:50:09.300Z,16.42
2023-03-27T04:50:44.304Z,16.48
2023-03-27T04:51:20.221Z,17.38
2023-03-27T04:51:53.413Z,17.70
2023-03-27T04:52:26.779Z,15.65
2023-03-27T04:53:00.805Z,17.07
2023-03-27T04:53:43.267Z,15.68
2023-03-27T04:54:17.708Z,16.38
2023-03-27T04:54:51.946Z,17.35
2023-03-27T04:55:26.880Z,17.13
2023-03-27T04:55:59.411Z,17.98
2023-03-27T04:56:34.006Z,17.60
2023-03-27T04:57:08.070Z,20.90
2023-03-27T04:57:41.952Z,19.90
2023-03-27T04:58:15.742Z,20.08
2023-03-27T04:58:49.273Z,16.57
2023-03-27T04:59:22.539Z,17.80
2023-03-27T05:00:24.154Z,17.55
2023-03-27T05:01:19.620Z,18.05
2023-03-27T05:02:21.624Z,17.45
2023-03-27T05:03:03.591Z,16.88
2023-03-27T05:03:46.270Z,17.45
2023-03-27T05:04:28.697Z,17.02
2023-03-27T05:05:17.147Z,16.73
2023-03-27T05:05:49.990Z,18.88
2023-03-27T05:06:22.773Z,20.23
2023-03-27T05:06:56.603Z,20.50
2023-03-27T05:07:28.938Z,20.65
2023-03-27T05:08:01.349Z,20.50
2023-03-27T05:08:33.724Z,21.17
2023-03-27T05:09:06.440Z,20.63
2023-03-27T05:09:39.352Z,19.92
2023-03-27T05:10:12.628Z,19.52
2023-03-27T05:10:45.882Z,20.40
2023-03-27T05:11:18.226Z,18.92
2023-03-27T05:11:50.932Z,20.87
2023-03-27T05:12:24.325Z,20.80
2023-03-27T05:13:01.294Z,18.63
2023-03-27T05:13:34.608Z,20.00
2023-03-27T05:14:07.182Z,18.55
2023-03-27T05:14:40.451Z,17.58
2023-03-27T05:15:21.395Z,17.40
2023-03-27T05:15:53.860Z,17.80
2023-03-27T05:16:28.856Z,17.77
2023-03-27T05:17:05.624Z,15.77
2023-03-27T05:17:40.990Z,17.87
2023-03-27T05:18:16.297Z,16.40
2023-03-27T05:18:49.722Z,17.20
2023-03-27T05:19:23.959Z,15.10
2023-03-27T05:20:03.752Z,16.50
2023-03-27T05:20:38.285Z,16.77
2023-03-27T05:21:14.996Z,17.42
2023-03-27T05:21:47.780Z,17.45
2023-03-27T05:22:20.117Z,15.90
2023-03-27T05:22:58.994Z,16.17
2023-03-27T05:23:32.620Z,16.67
2023-03-27T05:24:06.253Z,16.52
2023-03-27T05:24:39.431Z,16.13
2023-03-27T05:25:12.942Z,18.35
2023-03-27T05:25:59.988Z,17.23
2023-03-27T05:26:41.852Z,18.55
2023-03-27T05:27:15.425Z,16.42
2023-03-27T05:27:52.308Z,15.15
2023-03-27T05:28:25.687Z,16.30
2023-03-27T05:28:59.705Z,17.27
2023-03-27T05:29:46.835Z,16.80
2023-03-27T05:30:23.085Z,17.52
2023-03-27T05:31:01.886Z,17.25
2023-03-27T05:31:38.891Z,16.35
2023-03-27T05:32:31.383Z,15.63
2023-03-27T05:33:14.248Z,16.48
2023-03-27T05:33:46.547Z,14.07
2023-03-27T05:34:21.017Z,15.55
2023-03-27T05:34:55.892Z,15.63
2023-03-27T05:35:30.196Z,14.45
2023-03-27T05:36:06.225Z,15.03
2023-03-27T05:36:41.100Z,15.32
2023-03-27T05:37:13.410Z,15.68
2023-03-27T05:38:06.861Z,15.43
2023-03-27T05:38:46.186Z,14.00
2023-03-27T05:39:25.977Z,15.27
2023-03-27T05:39:58.328Z,15.43
2023-03-27T05:40:31.620Z,16.70
2023-03-27T05:41:04.659Z,16.08
2023-03-27T05:41:41.458Z,15.38
2023-03-27T05:42:14.806Z,14.83
2023-03-27T05:42:48.485Z,15.27
2023-03-27T05:43:21.501Z,13.60
2023-03-27T05:43:53.893Z,15.35
2023-03-27T05:44:27.609Z,14.55
2023-03-27T05:45:00.201Z,15.82
2023-03-27T05:45:33.814Z,15.23
2023-03-27T05:46:06.760Z,17.98
2023-03-27T05:46:40.554Z,15.82
2023-03-27T05:47:21.054Z,14.98
2023-03-27T05:47:55.681Z,14.17
2023-03-27T05:48:28.140Z,16.75
2023-03-27T05:49:05.387Z,14.93
2023-03-27T05:49:37.744Z,16.42
2023-03-27T05:50:18.379Z,14.18
2023-03-27T05:50:50.860Z,14.35
2023-03-27T05:51:27.866Z,14.10
2023-03-27T05:52:00.292Z,13.48
2023-03-27T05:52:32.586Z,14.80
2023-03-27T05:53:08.680Z,14.07
2023-03-27T05:53:43.280Z,15.20
2023-03-27T05:54:31.831Z,13.27
2023-03-27T05:55:09.777Z,14.77
2023-03-27T05:55:44.784Z,13.95
2023-03-27T05:56:17.588Z,15.60
2023-03-27T05:57:09.390Z,15.27
2023-03-27T05:57:43.837Z,15.55
2023-03-27T05:58:16.876Z,13.43
2023-03-27T05:58:49.581Z,16.27
2023-03-27T05:59:22.072Z,14.52
2023-03-27T05:59:57.232Z,16.13
2023-03-27T06:00:34.670Z,15.00
2023-03-27T06:01:08.072Z,14.77
2023-03-27T06:01:40.555Z,15.50
2023-03-27T06:02:13.424Z,17.35
2023-03-27T06:02:58.950Z,18.15
2023-03-27T06:03:45.973Z,17.23
2023-03-27T06:04:23.295Z,20.98
2023-03-27T06:05:13.751Z,21.90
2023-03-27T06:05:49.386Z,21.90
2023-03-27T06:06:22.485Z,21.40
2023-03-27T06:07:02.663Z,22.98
2023-03-27T06:07:39.067Z,27.70
2023-03-27T06:08:13.145Z,27.98
2023-03-27T06:08:46.414Z,28.08
2023-03-27T06:09:18.726Z,37.70
2023-03-27T06:10:13.523Z,41.10
2023-03-27T06:10:46.415Z,46.80
2023-03-27T06:11:27.136Z,40.25
2023-03-27T06:11:59.427Z,41.92
2023-03-27T06:12:31.931Z,39.83
2023-03-27T06:13:14.866Z,40.70
2023-03-27T06:13:58.499Z,46.15
2023-03-27T06:14:43.437Z,48.88
2023-03-27T06:15:31.871Z,46.92
2023-03-27T06:16:30.347Z,46.95
2023-03-27T06:17:15.658Z,43.70
2023-03-27T06:17:54.080Z,46.25
2023-03-27T06:18:26.465Z,46.75
2023-03-27T06:18:59.301Z,51.45
2023-03-27T06:19:32.752Z,53.57
2023-03-27T06:20:13.047Z,56.40
2023-03-27T06:20:46.930Z,58.65
2023-03-27T06:21:20.131Z,54.78
2023-03-27T06:21:52.724Z,46.75
2023-03-27T06:22:25.130Z,37.40
2023-03-27T06:22:59.800Z,34.10
2023-03-27T06:23:36.719Z,31.55
2023-03-27T06:24:15.254Z,30.30
2023-03-27T06:24:47.744Z,31.08
2023-03-27T06:25:26.033Z,27.77
2023-03-27T06:25:59.677Z,24.70
2023-03-27T06:26:34.149Z,26.73
2023-03-27T06:27:10.796Z,21.88
2023-03-27T06:27:45.539Z,23.90
2023-03-27T06:28:17.978Z,26.45
2023-03-27T06:28:51.362Z,25.02
2023-03-27T06:29:25.361Z,24.95
2023-03-27T06:29:57.716Z,21.42
2023-03-27T06:30:30.475Z,17.67
2023-03-27T06:31:22.290Z,17.80
2023-03-27T06:32:09.890Z,16.60
2023-03-27T06:32:51.369Z,15.20
2023-03-27T06:33:25.984Z,13.20
2023-03-27T06:33:58.600Z,17.27
2023-03-27T06:34:46.188Z,14.43
2023-03-27T06:35:53.112Z,14.63
2023-03-27T06:36:33.880Z,14.95
2023-03-27T06:37:06.751Z,15.02
2023-03-27T06:37:49.438Z,15.80
2023-03-27T06:38:24.163Z,13.40
2023-03-27T06:38:56.908Z,13.25
2023-03-27T06:39:29.282Z,16.42
2023-03-27T06:40:03.205Z,16.00
2023-03-27T06:40:35.562Z,15.18
2023-03-27T06:41:07.943Z,16.13
2023-03-27T06:42:12.762Z,15.10
2023-03-27T06:42:58.664Z,13.18
2023-03-27T06:43:39.815Z,17.20
2023-03-27T06:44:19.710Z,14.02
2023-03-27T06:45:18.367Z,15.20
2023-03-27T06:46:17.489Z,16.92
2023-03-27T06:47:22.570Z,15.27
2023-03-27T06:48:20.523Z,16.45
2023-03-27T06:48:55.390Z,15.55
2023-03-27T06:49:27.729Z,15.80
2023-03-27T06:50:00.295Z,17.05
2023-03-27T06:50:33.869Z,15.93
2023-03-27T06:51:07.097Z,15.77
2023-03-27T06:51:39.484Z,18.83
2023-03-27T06:52:12.225Z,18.03
2023-03-27T06:52:44.785Z,19.05
2023-03-27T06:53:40.110Z,18.92
2023-03-27T06:54:14.160Z,24.25
2023-03-27T06:54:51.290Z,21.40
2023-03-27T06:55:24.836Z,21.95
2023-03-27T06:55:59.778Z,20.23
2023-03-27T06:56:40.354Z,18.02
2023-03-27T06:57:23.605Z,16.42
2023-03-27T06:58:02.344Z,16.60
2023-03-27T06:58:34.754Z,15.67
2023-03-27T06:59:07.349Z,16.38
2023-03-27T06:59:39.744Z,17.50
2023-03-27T07:00:13.254Z,16.65
2023-03-27T07:01:04.185Z,19.20
2023-03-27T07:01:56.207Z,17.80
2023-03-27T07:02:40.405Z,21.13
2023-03-27T07:03:47.937Z,17.05
2023-03-27T07:04:42.861Z,17.67
2023-03-27T07:05:26.788Z,17.13
2023-03-27T07:06:00.750Z,17.80
2023-03-27T07:06:39.761Z,16.80
2023-03-27T07:07:16.191Z,16.55
2023-03-27T07:07:49.484Z,16.70
2023-03-27T07:08:24.800Z,19.10
2023-03-27T07:09:01.426Z,18.15
2023-03-27T07:09:34.210Z,14.93
2023-03-27T07:10:11.137Z,14.02
2023-03-27T07:10:47.032Z,13.55
2023-03-27T07:11:23.709Z,15.50
2023-03-27T07:12:01.199Z,16.17
2023-03-27T07:12:33.644Z,13.88
2023-03-27T07:13:06.388Z,14.23
2023-03-27T07:13:39.040Z,14.82
2023-03-27T07:14:14.660Z,14.43
2023-03-27T07:14:48.392Z,15.20
2023-03-27T07:15:21.762Z,14.48
2023-03-27T07:15:55.223Z,14.68
2023-03-27T07:16:28.227Z,15.98
2023-03-27T07:17:01.015Z,13.95
2023-03-27T07:17:48.764Z,15.37
2023-03-27T07:18:23.912Z,14.90
2023-03-27T07:19:01.886Z,17.60
2023-03-27T07:19:36.421Z,15.73
2023-03-27T07:20:13.159Z,14.70
2023-03-27T07:20:45.605Z,13.95
2023-03-27T07:21:21.496Z,13.05
2023-03-27T07:21:53.972Z,12.98
2023-03-27T07:22:26.825Z,12.70
2023-03-27T07:23:03.164Z,14.35
2023-03-27T07:24:07.751Z,12.70
2023-03-27T07:24:42.614Z,13.70
2023-03-27T07:25:16.497Z,11.60
2023-03-27T07:25:50.365Z,12.80
2023-03-27T07:26:34.396Z,13.80
2023-03-27T07:27:09.654Z,13.10
2023-03-27T07:27:42.437Z,12.60
2023-03-27T07:28:16.975Z,12.70
2023-03-27T07:28:51.051Z,12.35
2023-03-27T07:29:24.770Z,11.35
2023-03-27T07:30:01.663Z,10.97
2023-03-27T07:30:36.111Z,13.35
2023-03-27T07:31:29.357Z,13.35
2023-03-27T07:32:08.041Z,11.45
2023-03-27T07:32:54.813Z,13.20
2023-03-27T07:33:27.861Z,9.82
2023-03-27T07:34:00.336Z,11.05
2023-03-27T07:34:52.676Z,11.98
2023-03-27T07:35:46.109Z,11.93
2023-03-27T07:36:47.769Z,11.75
2023-03-27T07:37:22.931Z,10.90
2023-03-27T07:38:14.694Z,11.45
2023-03-27T07:38:47.735Z,10.75
2023-03-27T07:39:29.541Z,12.52
2023-03-27T07:40:02.173Z,11.73
2023-03-27T07:40:39.949Z,10.23
2023-03-27T07:41:39.379Z,12.98
2023-03-27T07:42:48.264Z,10.15
2023-03-27T07:43:24.636Z,9.98
2023-03-27T07:43:57.344Z,10.55
2023-03-27T07:44:29.836Z,9.80
2023-03-27T07:45:14.724Z,10.93
2023-03-27T07:45:47.228Z,12.23
2023-03-27T07:46:19.960Z,12.10
2023-03-27T07:46:53.023Z,11.60
2023-03-27T07:47:26.588Z,11.40
2023-03-27T07:48:09.294Z,11.10
2023-03-27T07:48:42.081Z,13.00
2023-03-27T07:49:38.954Z,9.75
2023-03-27T07:50:15.937Z,9.70
2023-03-27T07:50:48.698Z,10.03
2023-03-27T07:51:23.131Z,11.60
2023-03-27T07:51:55.789Z,10.60
2023-03-27T07:52:29.666Z,11.05
2023-03-27T07:53:06.867Z,11.55
2023-03-27T07:53:39.712Z,10.82
2023-03-27T07:54:19.432Z,11.45
2023-03-27T07:54:57.094Z,13.57
2023-03-27T07:55:38.095Z,13.43
2023-03-27T07:56:12.853Z,11.15
2023-03-27T07:56:46.679Z,12.97
2023-03-27T07:57:49.701Z,10.98
2023-03-27T07:58:30.555Z,10.88
2023-03-27T07:59:04.367Z,11.40
2023-03-27T07:59:38.406Z,13.23
2023-03-27T08:00:28.167Z,10.45
2023-03-27T08:01:12.201Z,11.02
2023-03-27T08:01:45.851Z,12.50
2023-03-27T08:02:18.442Z,12.38
2023-03-27T08:02:51.531Z,11.55
2023-03-27T08:03:26.634Z,11.80
2023-03-27T08:04:01.379Z,12.35
2023-03-27T08:04:34.461Z,11.52
2023-03-27T08:05:11.449Z,12.40
2023-03-27T08:05:45.408Z,11.32
2023-03-27T08:06:21.133Z,14.95
2023-03-27T08:06:54.837Z,16.08
2023-03-27T08:07:30.813Z,15.88
2023-03-27T08:08:05.671Z,14.88